< Typhoon 197314 1973 Season Typhoon 197316 >
Typhoon 197315 (NORA)
General InformationTrack Information on Google Maps || Disaster Info.ResourceGoogle EarthGE AnimationAtom FeedGeoJSON
Detalied Best Track (Time Zone = UTC)
Year Month Day Hour Lat. Long. Pressure (hPa) Wind (kt) Class Image Chart
1973 10 1 00 11.0 137.1 1006 0 2 -- Chart
1973 10 1 06 11.1 136.5 1004 0 2 -- Chart
1973 10 1 12 11.2 136.0 1004 0 2 -- Chart
1973 10 1 18 11.3 135.5 1004 0 2 -- Chart
1973 10 2 00 11.4 135.2 1000 0 2 -- Chart
1973 10 2 06 11.5 134.6 996 0 2 -- Chart
1973 10 2 12 11.5 133.8 990 0 9 -- Chart
1973 10 2 18 11.2 133.2 990 0 9 -- Chart
1973 10 3 00 11.2 133.2 985 0 9 -- Chart
1973 10 3 06 11.2 133.2 980 0 9 -- Chart
1973 10 3 12 11.2 133.0 980 0 9 -- Chart
1973 10 3 18 11.2 132.0 975 0 9 -- Chart
1973 10 4 00 11.3 131.5 975 0 9 -- Chart
1973 10 4 06 11.9 131.7 975 0 9 -- Chart
1973 10 4 12 12.5 131.5 970 0 9 -- Chart
1973 10 4 18 13.0 131.0 960 0 9 -- Chart
1973 10 5 00 13.3 130.5 950 0 9 -- Chart
1973 10 5 06 13.9 129.9 930 0 9 -- Chart
1973 10 5 12 14.2 129.5 905 0 9 -- Chart
1973 10 5 18 14.5 128.9 890 0 9 -- Chart
1973 10 6 00 14.7 128.3 875 0 9 -- Chart
1973 10 6 06 14.8 127.0 885 0 9 -- Chart
1973 10 6 12 14.8 125.5 900 0 9 -- Chart
1973 10 6 18 15.1 124.8 905 0 9 -- Chart
1973 10 7 00 15.7 124.2 915 0 9 -- Chart
1973 10 7 06 16.4 123.3 920 0 9 -- Chart
1973 10 7 12 17.2 123.0 925 0 9 -- Chart
1973 10 7 18 18.1 122.6 925 0 9 -- Chart
1973 10 8 00 18.9 121.8 940 0 9 -- Chart
1973 10 8 06 19.6 121.0 950 0 9 -- Chart
1973 10 8 12 20.2 120.5 975 0 9 -- Chart
1973 10 8 18 20.6 120.0 975 0 9 -- Chart
1973 10 9 00 20.9 119.8 975 0 9 -- Chart
1973 10 9 06 21.3 119.6 975 0 9 -- Chart
1973 10 9 12 22.1 119.3 975 0 9 -- Chart
1973 10 9 18 23.0 119.1 975 0 9 -- Chart
1973 10 10 00 23.7 118.7 975 0 9 -- Chart
1973 10 10 06 24.6 117.8 996 0 2 -- Chart
1973 10 10 12 25.2 117.0 1004 0 2 -- Chart
Japan Meteorological Agency Best Track Data | Correction Date : 1989-06-01
< Typhoon 197314 1973 Season Typhoon 197316 >

Help